Buckley Air Force Base Aurora US
ICAO: KBKF
IATA: BFK
Category: Medium
Scheduled Services: No

Elevation: 5662 ft
TransAlt. 18000 ft.

Airport Communications:
DENVER APP/DEP:128.45
ATIS:119.675
GND/CLNC DEL:121.6
PMSV METRO:22.845
PTD:37.22
TWR:121

KBKF Zoom In..

If you have problems with the map follow the link
https://www.worldairports.se/pages/airport.php?
ICAO=KBKF

Runways:

(A) RW 14 length 11006 ft width 150 ft
---- / hdg 140

(B) RW 32 length 11006 ft width 150 ft
ILS 109.70 / hdg 320

Location; KBKF
Day. 24 / Time. 07.58 Zulu
* Altimeter: 30.01
* Temperature: -04° c. -24.8°f.
* Wind from: 130° Speed 04 kn.
Dewpoint: -04° c.
Visibility: 10 Statute Miles.
Clouds: Overcast 6000 ft.

KBKF 240758Z 13004KT 10SM OVC060 M04/M04 A3001 RMK AO2A SLP168 T10411042


Wind From 130°
Speed 04 kn.

 
 
jpsmedia.com for Web Design worldairports.se 2019   terms of use